Time;durP1;ratioP1;P1;durP2;ratioP2;P2;SDS_P1;SDS_P2;PMS_P1;PMS_P2;Temp;Humidity;BMP_temperature;BMP_pressure;BME280_temperature;BME280_humidity;BME280_pressure;Samples;Min_cycle;Max_cycle;Signal;HPM_P1;HPM_P2
2023/04/11 00:05:33;;;;;;;;;;;;;;;12.45;81.79;97647.22;18300503;32;20261;-57
2023/04/11 00:15:36;;;;;;;;;;;;;;;12.96;76.31;97634.31;18286279;32;20300;-57
2023/04/11 00:25:38;;;;;;;;;;;;;;;12.97;76.84;97644.09;18285775;32;19945;-57
2023/04/11 00:35:40;;;;;;;;;;;;;;;13.13;73.22;97607.56;18299012;32;19957;-57
2023/04/11 00:45:43;;;;;;;;;;;;;;;13.07;69.51;97576.13;18298682;32;19968;-57
2023/04/11 00:55:45;;;;;;;;;;;;;;;13.02;71.28;97549.03;18298298;32;20333;-57
2023/04/11 01:05:51;;;;;;;;;;;;;;;13.02;71.13;97577.00;18283362;32;19957;-57
2023/04/11 01:15:53;;;;;;;;;;;;;;;13.00;73.74;97589.22;18297359;32;19972;-57
2023/04/11 01:25:55;;;;;;;;;;;;;;;13.12;75.98;97583.41;18296681;32;19938;-57
2023/04/11 01:35:57;;;;;;;;;;;;;;;13.14;83.54;97567.63;18295939;32;20303;-57
2023/04/11 01:46:00;;;;;;;;;;;;;;;12.97;89.64;97582.47;18281807;32;19953;-57
2023/04/11 01:56:02;;;;;;;;;;;;;;;12.97;92.08;97584.37;18294981;32;19985;-57
2023/04/11 02:06:05;;;;;;;;;;;;;;;13.03;96.42;97580.50;18281478;32;19946;-58
2023/04/11 02:16:13;;;;;;;;;;;;;;;12.76;100.00;97598.16;18301717;32;20004;-58
2023/04/11 02:26:16;;;;;;;;;;;;;;;12.07;100.00;97592.72;18305682;32;20326;-58
2023/04/11 02:36:18;;;;;;;;;;;;;;;11.60;100.00;97591.38;18304677;32;19957;-58
2023/04/11 02:46:21;;;;;;;;;;;;;;;11.43;100.00;97619.59;18304623;32;19946;-55
2023/04/11 02:56:23;;;;;;;;;;;;;;;11.40;100.00;97635.56;18290227;32;19957;-56
2023/04/11 03:06:25;;;;;;;;;;;;;;;10.42;100.00;97646.53;18303838;32;19994;-56
2023/04/11 03:16:28;;;;;;;;;;;;;;;9.86;100.00;97614.81;18303068;32;20001;-57
2023/04/11 03:26:31;;;;;;;;;;;;;;;9.70;100.00;97630.94;18302513;32;19978;-57
2023/04/11 03:36:33;;;;;;;;;;;;;;;9.66;100.00;97625.28;18301854;32;19961;-57
2023/04/11 03:46:35;;;;;;;;;;;;;;;9.65;100.00;97622.84;18287518;32;19941;-57
2023/04/11 03:56:37;;;;;;;;;;;;;;;9.67;100.00;97620.69;18301174;32;19989;-57
2023/04/11 04:06:40;;;;;;;;;;;;;;;9.73;100.00;97625.03;18300537;32;19949;-57
2023/04/11 04:16:43;;;;;;;;;;;;;;;9.71;100.00;97643.38;18300882;32;19953;-57
2023/04/11 04:26:48;;;;;;;;;;;;;;;9.68;100.00;97662.81;18285776;32;19963;-57
2023/04/11 04:36:55;;;;;;;;;;;;;;;9.60;100.00;97658.72;18298404;32;19960;-57
2023/04/11 04:46:57;;;;;;;;;;;;;;;9.49;100.00;97665.16;18298786;32;20013;-57
2023/04/11 04:57:00;;;;;;;;;;;;;;;9.40;100.00;97664.88;18298071;32;20013;-57
2023/04/11 05:07:02;;;;;;;;;;;;;;;9.37;100.00;97665.38;18284108;32;19996;-57
2023/04/11 05:17:05;;;;;;;;;;;;;;;9.33;100.00;97686.69;18283603;32;19957;-57
2023/04/11 05:27:07;;;;;;;;;;;;;;;9.36;100.00;97684.53;18296693;32;19989;-57
2023/04/11 05:37:09;;;;;;;;;;;;;;;9.38;100.00;97688.59;18295727;32;19949;-57
2023/04/11 05:47:11;;;;;;;;;;;;;;;9.48;100.00;97712.13;18294907;32;19982;-57
2023/04/11 05:57:14;;;;;;;;;;;;;;;9.56;100.00;97721.63;18281792;32;19986;-57
2023/04/11 06:07:16;;;;;;;;;;;;;;;9.52;100.00;97723.22;18294846;32;19941;-57
2023/04/11 06:17:19;;;;;;;;;;;;;;;9.40;100.00;97762.03;18294816;32;19953;-57
2023/04/11 06:27:22;;;;;;;;;;;;;;;9.35;100.00;97764.69;18294179;32;19945;-57
2023/04/11 06:37:24;;;;;;;;;;;;;;;9.19;100.00;97803.41;18293412;32;19950;-58
2023/04/11 06:47:27;;;;;;;;;;;;;;;9.16;100.00;97827.13;18293814;32;20351;-57
2023/04/11 06:57:29;;;;;;;;;;;;;;;9.19;100.00;97841.97;18281028;32;19965;-57
2023/04/11 07:07:32;;;;;;;;;;;;;;;9.09;100.00;97855.41;18303663;32;19969;-57
2023/04/11 07:17:34;;;;;;;;;;;;;;;9.07;100.00;97866.44;18303098;32;19988;-57
2023/04/11 07:27:37;;;;;;;;;;;;;;;9.15;100.00;97887.56;18302760;32;19949;-57
2023/04/11 07:37:41;;;;;;;;;;;;;;;9.25;100.00;97875.22;18302227;32;20295;-57
2023/04/11 07:47:43;;;;;;;;;;;;;;;9.36;100.00;97874.25;18287647;32;20275;-57
2023/04/11 07:57:46;;;;;;;;;;;;;;;9.35;100.00;97871.81;18301706;32;20309;-57
2023/04/11 08:07:48;;;;;;;;;;;;;;;9.35;100.00;97882.59;18300442;32;20009;-57
2023/04/11 08:17:54;;;;;;;;;;;;;;;9.57;100.00;97893.31;18300018;32;19950;-57
2023/04/11 08:27:57;;;;;;;;;;;;;;;9.92;100.00;97891.94;18286056;32;19957;-57
2023/04/11 08:38:02;;;;;;;;;;;;;;;10.21;100.00;97905.06;18285345;32;19996;-57
2023/04/11 08:48:06;;;;;;;;;;;;;;;10.34;100.00;97928.94;18272240;32;19966;-57
2023/04/11 08:58:08;;;;;;;;;;;;;;;10.83;100.00;97931.34;18298508;32;20004;-57
2023/04/11 09:08:15;;;;;;;;;;;;;;;11.58;100.00;97943.69;18297946;32;20001;-57
2023/04/11 09:18:36;;;;;;;;;;;;;;;12.22;100.00;97944.22;18297569;32;19949;-57
2023/04/11 09:28:43;;;;;;;;;;;;;;;12.55;100.00;97950.13;18296544;32;20015;-57
2023/04/11 09:38:45;;;;;;;;;;;;;;;12.83;100.00;97945.16;18295747;32;19955;-57
2023/04/11 09:48:49;;;;;;;;;;;;;;;13.12;100.00;97936.31;18282277;32;19958;-57
2023/04/11 09:58:51;;;;;;;;;;;;;;;13.04;92.40;97921.44;18295346;32;19950;-57
2023/04/11 10:09:03;;;;;;;;;;;;;;;13.58;100.00;97933.34;18281190;32;19941;-57
2023/04/11 10:19:06;;;;;;;;;;;;;;;14.22;90.27;97942.31;18294746;32;19985;-57
2023/04/11 10:29:28;;;;;;;;;;;;;;;14.12;96.92;97942.41;18294268;32;19964;-57
2023/04/11 10:39:49;;;;;;;;;;;;;;;13.62;85.40;97939.84;18303484;32;19949;-57
2023/04/11 10:49:53;;;;;;;;;;;;;;;14.11;77.61;97924.47;18277392;32;19945;-57
2023/04/11 10:59:56;;;;;;;;;;;;;;;14.31;78.86;97938.97;18303903;32;20339;-57
2023/04/11 11:09:58;;;;;;;;;;;;;;;14.55;80.23;97926.19;18303503;32;19950;-57
2023/04/11 11:20:01;;;;;;;;;;;;;;;14.36;80.23;97933.47;18302695;32;19964;-57
2023/04/11 11:30:10;;;;;;;;;;;;;;;14.60;69.87;97938.13;18288779;32;20279;-57
2023/04/11 11:40:12;;;;;;;;;;;;;;;14.16;68.31;97932.56;18301760;32;19961;-57
2023/04/11 11:50:25;;;;;;;;;;;;;;;14.38;67.98;97939.44;18300392;32;20281;-57
2023/04/11 12:00:28;;;;;;;;;;;;;;;15.12;67.22;97938.31;18287117;32;20275;-57
2023/04/11 12:10:38;;;;;;;;;;;;;;;15.92;61.74;97944.75;18300559;32;19953;-57
2023/04/11 12:20:40;;;;;;;;;;;;;;;16.24;62.19;97927.56;18300356;32;19945;-57
2023/04/11 12:30:43;;;;;;;;;;;;;;;16.45;54.01;97913.53;18299911;32;19955;-57
2023/04/11 12:40:45;;;;;;;;;;;;;;;16.48;55.47;97920.31;18285117;32;19961;-57
2023/04/11 12:50:48;;;;;;;;;;;;;;;16.44;56.37;97911.91;18284743;32;19949;-57
2023/04/11 13:00:50;;;;;;;;;;;;;;;16.52;57.09;97926.78;18297654;32;19953;-57
2023/04/11 13:10:53;;;;;;;;;;;;;;;16.15;55.87;97899.34;18297645;32;19993;-57
2023/04/11 13:20:57;;;;;;;;;;;;;;;16.01;53.36;97906.72;18297192;32;19968;-57
2023/04/11 13:31:00;;;;;;;;;;;;;;;16.43;54.27;97894.75;18282983;32;19981;-57
2023/04/11 13:41:02;;;;;;;;;;;;;;;16.99;54.09;97881.06;18295629;32;20363;-58
2023/04/11 13:51:05;;;;;;;;;;;;;;;17.43;54.25;97868.59;18295752;32;19937;-57
2023/04/11 14:01:07;;;;;;;;;;;;;;;17.54;51.22;97863.69;18295407;32;19953;-57
2023/04/11 14:11:09;;;;;;;;;;;;;;;17.27;47.31;97854.47;18280716;32;19977;-58
2023/04/11 14:21:12;;;;;;;;;;;;;;;17.51;47.66;97845.16;18268032;32;20302;-57
2023/04/11 14:31:15;;;;;;;;;;;;;;;16.91;49.52;97813.50;18294238;32;19997;-57
2023/04/11 14:41:18;;;;;;;;;;;;;;;17.15;52.72;97805.03;18279587;32;20350;-57
2023/04/11 14:51:22;;;;;;;;;;;;;;;17.23;49.98;97798.81;18293315;32;19965;-57
2023/04/11 15:01:25;;;;;;;;;;;;;;;16.99;46.51;97781.94;18279029;32;19954;-57
2023/04/11 15:11:27;;;;;;;;;;;;;;;17.01;50.38;97774.25;18292742;32;19961;-57
2023/04/11 15:21:33;;;;;;;;;;;;;;;16.54;45.28;97745.22;18283607;32;19976;-57
2023/04/11 15:31:37;;;;;;;;;;;;;;;16.60;48.05;97749.44;18288928;32;20329;-58
2023/04/11 15:41:40;;;;;;;;;;;;;;;16.49;46.64;97741.81;18301929;32;19997;-57
2023/04/11 15:51:43;;;;;;;;;;;;;;;16.20;47.13;97723.88;18302038;32;19975;-57
2023/04/11 16:01:46;;;;;;;;;;;;;;;16.17;50.16;97708.09;18301194;32;19945;-57
2023/04/11 16:11:48;;;;;;;;;;;;;;;15.87;50.67;97700.28;18300677;32;19961;-57
2023/04/11 16:21:50;;;;;;;;;;;;;;;16.01;51.10;97694.00;18300086;32;19937;-57
2023/04/11 16:31:53;;;;;;;;;;;;;;;15.74;51.43;97673.78;18298928;32;19949;-57
2023/04/11 16:41:56;;;;;;;;;;;;;;;15.05;50.49;97683.50;18285424;32;19945;-57
2023/04/11 16:51:59;;;;;;;;;;;;;;;14.56;55.07;97676.66;18298531;32;19961;-57
2023/04/11 17:02:01;;;;;;;;;;;;;;;14.18;58.86;97663.88;18284212;32;19941;-57
2023/04/11 17:12:03;;;;;;;;;;;;;;;13.77;63.17;97653.53;18283864;32;19961;-57
2023/04/11 17:22:06;;;;;;;;;;;;;;;13.46;68.81;97648.50;18297106;32;19941;-57
2023/04/11 17:32:10;;;;;;;;;;;;;;;13.09;75.66;97636.38;18296907;32;19968;-57
2023/04/11 17:42:13;;;;;;;;;;;;;;;12.73;82.15;97630.47;18295802;32;19953;-57
2023/04/11 17:52:16;;;;;;;;;;;;;;;12.31;83.98;97613.72;18295978;32;20294;-57
2023/04/11 18:02:18;;;;;;;;;;;;;;;11.86;87.21;97614.50;18281647;32;19960;-57
2023/04/11 18:12:21;;;;;;;;;;;;;;;11.48;92.01;97608.75;18281405;32;19982;-57
2023/04/11 18:22:30;;;;;;;;;;;;;;;11.13;95.48;97624.00;18280649;32;19956;-57
2023/04/11 18:32:36;;;;;;;;;;;;;;;10.83;97.31;97601.34;18280447;32;19953;-57
2023/04/11 18:42:47;;;;;;;;;;;;;;;10.65;100.00;97612.75;18293934;32;19950;-57
2023/04/11 18:52:51;;;;;;;;;;;;;;;10.43;100.00;97599.47;18294859;32;19976;-56
2023/04/11 19:02:58;;;;;;;;;;;;;;;10.29;100.00;97588.38;18304185;32;19954;-57
2023/04/11 19:13:01;;;;;;;;;;;;;;;10.22;100.00;97601.34;18290207;32;20024;-56
2023/04/11 19:23:03;;;;;;;;;;;;;;;10.06;100.00;97590.53;18303001;32;19946;-56
2023/04/11 19:33:06;;;;;;;;;;;;;;;9.97;100.00;97582.12;18302748;32;19950;-57
2023/04/11 19:43:08;;;;;;;;;;;;;;;9.90;100.00;97568.09;18301896;32;19949;-57
2023/04/11 19:53:11;;;;;;;;;;;;;;;9.80;100.00;97568.88;18301781;32;19961;-57
2023/04/11 20:03:13;;;;;;;;;;;;;;;9.67;100.00;97545.09;18300504;32;19949;-57
2023/04/11 20:13:16;;;;;;;;;;;;;;;9.57;100.00;97535.09;18300548;32;19989;-57
2023/04/11 20:23:20;;;;;;;;;;;;;;;9.50;100.00;97529.16;18300190;32;19950;-57
2023/04/11 20:33:23;;;;;;;;;;;;;;;9.45;100.00;97531.81;18285807;32;20289;-57
2023/04/11 20:43:25;;;;;;;;;;;;;;;9.42;100.00;97532.37;18299287;32;19949;-57
2023/04/11 20:53:28;;;;;;;;;;;;;;;9.44;100.00;97530.19;18298693;32;19993;-57
2023/04/11 21:03:35;;;;;;;;;;;;;;;9.41;100.00;97515.34;18298175;32;19981;-57
2023/04/11 21:13:37;;;;;;;;;;;;;;;9.35;100.00;97521.81;18297879;32;19972;-57
2023/04/11 21:23:40;;;;;;;;;;;;;;;9.29;100.00;97515.59;18296945;32;20248;-57
2023/04/11 21:33:44;;;;;;;;;;;;;;;9.14;100.00;97513.66;18296717;32;20021;-57
2023/04/11 21:43:47;;;;;;;;;;;;;;;9.05;100.00;97515.22;18232448;32;20371;-57
2023/04/11 21:53:49;;;;;;;;;;;;;;;8.99;100.00;97473.97;18233293;32;19961;-57
2023/04/11 22:03:52;;;;;;;;;;;;;;;8.84;100.00;97433.47;18232966;32;19958;-57
2023/04/11 22:13:57;;;;;;;;;;;;;;;8.68;100.00;97421.81;18232286;32;19949;-57
2023/04/11 22:24:01;;;;;;;;;;;;;;;8.55;100.00;97433.88;18232105;32;19986;-57
2023/04/11 22:34:03;;;;;;;;;;;;;;;8.45;100.00;97428.44;18239355;32;20261;-57
2023/04/11 22:44:06;;;;;;;;;;;;;;;8.36;100.00;97376.91;18296827;32;19993;-57
2023/04/11 22:54:08;;;;;;;;;;;;;;;8.34;100.00;97364.78;18290582;32;19953;-57
2023/04/11 23:04:10;;;;;;;;;;;;;;;8.28;100.00;97315.47;18304263;32;20353;-57
2023/04/11 23:14:14;;;;;;;;;;;;;;;8.28;100.00;97326.25;18303641;32;20266;-57
2023/04/11 23:24:16;;;;;;;;;;;;;;;8.24;100.00;97296.31;18303183;32;20350;-57
2023/04/11 23:34:19;;;;;;;;;;;;;;;8.29;100.00;97296.34;18302744;32;20265;-57
2023/04/11 23:44:21;;;;;;;;;;;;;;;8.29;100.00;97290.13;18301687;32;19967;-57
2023/04/11 23:54:28;;;;;;;;;;;;;;;8.35;100.00;97274.81;18301912;32;20321;-57
